sensor_id;sensor_type;location;lat;lon;timestamp;temperature;humidity
11748;DHT22;5931;48.832;9.072;2023-12-20T00:01:38;6.10;99.90
11748;DHT22;5931;48.832;9.072;2023-12-20T00:04:04;6.10;99.90
11748;DHT22;5931;48.832;9.072;2023-12-20T00:06:30;6.10;99.90
11748;DHT22;5931;48.832;9.072;2023-12-20T00:08:56;6.00;99.90
11748;DHT22;5931;48.832;9.072;2023-12-20T00:11:23;6.00;99.90
11748;DHT22;5931;48.832;9.072;2023-12-20T00:13:49;5.90;99.90
11748;DHT22;5931;48.832;9.072;2023-12-20T00:16:15;6.00;99.90
11748;DHT22;5931;48.832;9.072;2023-12-20T00:18:41;5.90;99.90
11748;DHT22;5931;48.832;9.072;2023-12-20T00:21:07;5.90;99.90
11748;DHT22;5931;48.832;9.072;2023-12-20T00:23:33;5.90;99.90
11748;DHT22;5931;48.832;9.072;2023-12-20T00:25:59;5.90;99.90
11748;DHT22;5931;48.832;9.072;2023-12-20T00:28:25;5.90;99.90
11748;DHT22;5931;48.832;9.072;2023-12-20T00:30:50;5.80;99.90
11748;DHT22;5931;48.832;9.072;2023-12-20T00:33:16;5.80;99.90
11748;DHT22;5931;48.832;9.072;2023-12-20T00:35:42;5.80;99.90
11748;DHT22;5931;48.832;9.072;2023-12-20T00:38:08;5.70;99.90
11748;DHT22;5931;48.832;9.072;2023-12-20T00:40:34;5.60;99.90
11748;DHT22;5931;48.832;9.072;2023-12-20T00:43:00;5.60;99.90
11748;DHT22;5931;48.832;9.072;2023-12-20T00:45:26;5.60;99.90
11748;DHT22;5931;48.832;9.072;2023-12-20T00:47:52;5.50;99.90
11748;DHT22;5931;48.832;9.072;2023-12-20T00:50:18;5.50;99.90
11748;DHT22;5931;48.832;9.072;2023-12-20T00:52:43;5.50;99.90
11748;DHT22;5931;48.832;9.072;2023-12-20T00:55:09;5.40;99.90
11748;DHT22;5931;48.832;9.072;2023-12-20T00:57:35;5.40;99.90
11748;DHT22;5931;48.832;9.072;2023-12-20T01:00:01;5.40;99.90
11748;DHT22;5931;48.832;9.072;2023-12-20T01:02:27;5.30;99.90
11748;DHT22;5931;48.832;9.072;2023-12-20T01:04:53;5.30;99.90
11748;DHT22;5931;48.832;9.072;2023-12-20T01:07:18;5.30;99.90
11748;DHT22;5931;48.832;9.072;2023-12-20T01:09:44;5.40;99.90
11748;DHT22;5931;48.832;9.072;2023-12-20T01:12:10;5.40;99.90
11748;DHT22;5931;48.832;9.072;2023-12-20T01:14:36;5.30;99.90
11748;DHT22;5931;48.832;9.072;2023-12-20T01:17:02;5.30;99.90
11748;DHT22;5931;48.832;9.072;2023-12-20T01:19:27;5.30;99.90
11748;DHT22;5931;48.832;9.072;2023-12-20T01:21:55;5.30;99.90
11748;DHT22;5931;48.832;9.072;2023-12-20T01:24:21;5.30;99.90
11748;DHT22;5931;48.832;9.072;2023-12-20T01:26:47;5.30;99.90
11748;DHT22;5931;48.832;9.072;2023-12-20T01:29:13;5.30;99.90
11748;DHT22;5931;48.832;9.072;2023-12-20T01:31:40;5.30;99.90
11748;DHT22;5931;48.832;9.072;2023-12-20T01:34:06;5.30;99.90
11748;DHT22;5931;48.832;9.072;2023-12-20T01:36:32;5.30;99.90
11748;DHT22;5931;48.832;9.072;2023-12-20T01:38:57;5.20;99.90
11748;DHT22;5931;48.832;9.072;2023-12-20T01:41:23;5.30;99.90
11748;DHT22;5931;48.832;9.072;2023-12-20T01:43:49;5.30;99.90
11748;DHT22;5931;48.832;9.072;2023-12-20T01:46:15;5.30;99.90
11748;DHT22;5931;48.832;9.072;2023-12-20T01:48:41;5.20;99.90
11748;DHT22;5931;48.832;9.072;2023-12-20T01:51:07;5.20;99.90
11748;DHT22;5931;48.832;9.072;2023-12-20T01:53:34;5.10;99.90
11748;DHT22;5931;48.832;9.072;2023-12-20T01:56:00;5.10;99.90
11748;DHT22;5931;48.832;9.072;2023-12-20T01:58:27;5.10;99.90
11748;DHT22;5931;48.832;9.072;2023-12-20T02:00:54;5.00;99.90
11748;DHT22;5931;48.832;9.072;2023-12-20T02:03:20;5.00;99.90
11748;DHT22;5931;48.832;9.072;2023-12-20T02:05:47;5.00;99.90
11748;DHT22;5931;48.832;9.072;2023-12-20T02:08:13;5.00;99.90
11748;DHT22;5931;48.832;9.072;2023-12-20T02:10:39;4.90;99.90
11748;DHT22;5931;48.832;9.072;2023-12-20T02:13:06;5.00;99.90
11748;DHT22;5931;48.832;9.072;2023-12-20T02:15:32;5.00;99.90
11748;DHT22;5931;48.832;9.072;2023-12-20T02:17:58;4.90;99.90
11748;DHT22;5931;48.832;9.072;2023-12-20T02:20:25;4.90;99.90
11748;DHT22;5931;48.832;9.072;2023-12-20T02:22:50;4.90;99.90
11748;DHT22;5931;48.832;9.072;2023-12-20T02:25:16;4.90;99.90
11748;DHT22;5931;48.832;9.072;2023-12-20T02:27:42;5.00;99.90
11748;DHT22;5931;48.832;9.072;2023-12-20T02:30:09;5.10;99.90
11748;DHT22;5931;48.832;9.072;2023-12-20T02:32:35;5.10;99.90
11748;DHT22;5931;48.832;9.072;2023-12-20T02:35:01;5.20;99.90
11748;DHT22;5931;48.832;9.072;2023-12-20T02:37:27;5.30;99.90
11748;DHT22;5931;48.832;9.072;2023-12-20T02:39:53;5.50;99.90
11748;DHT22;5931;48.832;9.072;2023-12-20T02:42:19;5.50;99.90
11748;DHT22;5931;48.832;9.072;2023-12-20T02:44:45;5.60;99.90
11748;DHT22;5931;48.832;9.072;2023-12-20T02:47:10;5.60;99.90
11748;DHT22;5931;48.832;9.072;2023-12-20T02:49:36;5.60;99.90
11748;DHT22;5931;48.832;9.072;2023-12-20T02:52:02;5.60;99.90
11748;DHT22;5931;48.832;9.072;2023-12-20T02:54:28;5.70;99.90
11748;DHT22;5931;48.832;9.072;2023-12-20T02:56:54;5.60;99.90
11748;DHT22;5931;48.832;9.072;2023-12-20T02:59:20;5.60;99.90
11748;DHT22;5931;48.832;9.072;2023-12-20T03:01:46;5.60;99.90
11748;DHT22;5931;48.832;9.072;2023-12-20T03:04:12;5.60;99.90
11748;DHT22;5931;48.832;9.072;2023-12-20T03:06:39;5.60;99.90
11748;DHT22;5931;48.832;9.072;2023-12-20T03:09:05;5.60;99.90
11748;DHT22;5931;48.832;9.072;2023-12-20T03:11:30;5.50;99.90
11748;DHT22;5931;48.832;9.072;2023-12-20T03:13:57;5.50;99.90
11748;DHT22;5931;48.832;9.072;2023-12-20T03:16:23;5.50;99.90
11748;DHT22;5931;48.832;9.072;2023-12-20T03:18:49;5.50;99.90
11748;DHT22;5931;48.832;9.072;2023-12-20T03:21:15;5.50;99.90
11748;DHT22;5931;48.832;9.072;2023-12-20T03:23:41;5.40;99.90
11748;DHT22;5931;48.832;9.072;2023-12-20T03:26:08;5.40;99.90
11748;DHT22;5931;48.832;9.072;2023-12-20T03:28:34;5.40;99.90
11748;DHT22;5931;48.832;9.072;2023-12-20T03:31:00;5.30;99.90
11748;DHT22;5931;48.832;9.072;2023-12-20T03:33:26;5.30;99.90
11748;DHT22;5931;48.832;9.072;2023-12-20T03:35:51;5.30;99.90
11748;DHT22;5931;48.832;9.072;2023-12-20T03:38:17;5.30;99.90
11748;DHT22;5931;48.832;9.072;2023-12-20T03:40:43;5.30;99.90
11748;DHT22;5931;48.832;9.072;2023-12-20T03:43:09;5.20;99.90
11748;DHT22;5931;48.832;9.072;2023-12-20T03:45:35;5.20;99.90
11748;DHT22;5931;48.832;9.072;2023-12-20T03:48:01;5.20;99.90
11748;DHT22;5931;48.832;9.072;2023-12-20T03:50:27;5.20;99.90
11748;DHT22;5931;48.832;9.072;2023-12-20T03:52:53;5.20;99.90
11748;DHT22;5931;48.832;9.072;2023-12-20T03:55:18;5.10;99.90
11748;DHT22;5931;48.832;9.072;2023-12-20T03:57:44;5.10;99.90
11748;DHT22;5931;48.832;9.072;2023-12-20T04:00:11;5.10;99.90
11748;DHT22;5931;48.832;9.072;2023-12-20T04:02:42;5.10;99.90
11748;DHT22;5931;48.832;9.072;2023-12-20T04:05:09;5.00;99.90
11748;DHT22;5931;48.832;9.072;2023-12-20T04:07:36;5.00;99.90
11748;DHT22;5931;48.832;9.072;2023-12-20T04:10:02;5.00;99.90
11748;DHT22;5931;48.832;9.072;2023-12-20T04:12:30;5.00;99.90
11748;DHT22;5931;48.832;9.072;2023-12-20T04:14:56;5.00;99.90
11748;DHT22;5931;48.832;9.072;2023-12-20T04:17:23;5.00;99.90
11748;DHT22;5931;48.832;9.072;2023-12-20T04:19:49;4.90;99.90
11748;DHT22;5931;48.832;9.072;2023-12-20T04:22:15;4.90;99.90
11748;DHT22;5931;48.832;9.072;2023-12-20T04:24:41;4.90;99.90
11748;DHT22;5931;48.832;9.072;2023-12-20T04:27:10;4.90;99.90
11748;DHT22;5931;48.832;9.072;2023-12-20T04:29:36;4.90;99.90
11748;DHT22;5931;48.832;9.072;2023-12-20T04:32:02;4.90;99.90
11748;DHT22;5931;48.832;9.072;2023-12-20T04:34:28;4.90;99.90
11748;DHT22;5931;48.832;9.072;2023-12-20T04:36:54;4.90;99.90
11748;DHT22;5931;48.832;9.072;2023-12-20T04:39:20;4.90;99.90
11748;DHT22;5931;48.832;9.072;2023-12-20T04:41:46;4.90;99.90
11748;DHT22;5931;48.832;9.072;2023-12-20T04:44:13;4.90;99.90
11748;DHT22;5931;48.832;9.072;2023-12-20T04:46:39;4.90;99.90
11748;DHT22;5931;48.832;9.072;2023-12-20T04:49:05;4.90;99.90
11748;DHT22;5931;48.832;9.072;2023-12-20T04:51:34;4.80;99.90
11748;DHT22;5931;48.832;9.072;2023-12-20T04:54:01;4.90;99.90
11748;DHT22;5931;48.832;9.072;2023-12-20T04:56:26;4.80;99.90
11748;DHT22;5931;48.832;9.072;2023-12-20T04:58:52;4.80;99.90
11748;DHT22;5931;48.832;9.072;2023-12-20T05:01:18;4.80;99.90
11748;DHT22;5931;48.832;9.072;2023-12-20T05:03:44;4.80;99.90
11748;DHT22;5931;48.832;9.072;2023-12-20T05:06:10;4.90;99.90
11748;DHT22;5931;48.832;9.072;2023-12-20T05:08:36;4.80;99.90
11748;DHT22;5931;48.832;9.072;2023-12-20T05:11:02;4.80;99.90
11748;DHT22;5931;48.832;9.072;2023-12-20T05:13:28;4.80;99.90
11748;DHT22;5931;48.832;9.072;2023-12-20T05:15:54;4.80;99.90
11748;DHT22;5931;48.832;9.072;2023-12-20T05:18:21;4.80;99.90
11748;DHT22;5931;48.832;9.072;2023-12-20T05:20:47;4.90;99.90
11748;DHT22;5931;48.832;9.072;2023-12-20T05:23:13;4.90;99.90
11748;DHT22;5931;48.832;9.072;2023-12-20T05:25:39;4.90;99.90
11748;DHT22;5931;48.832;9.072;2023-12-20T05:28:05;4.90;99.90
11748;DHT22;5931;48.832;9.072;2023-12-20T05:30:31;4.90;99.90
11748;DHT22;5931;48.832;9.072;2023-12-20T05:32:57;4.80;99.90
11748;DHT22;5931;48.832;9.072;2023-12-20T05:35:23;4.90;99.90
11748;DHT22;5931;48.832;9.072;2023-12-20T05:37:49;4.90;99.90
11748;DHT22;5931;48.832;9.072;2023-12-20T05:40:15;4.90;99.90
11748;DHT22;5931;48.832;9.072;2023-12-20T05:42:41;4.90;99.90
11748;DHT22;5931;48.832;9.072;2023-12-20T05:45:07;4.90;99.90
11748;DHT22;5931;48.832;9.072;2023-12-20T05:47:33;4.90;99.90
11748;DHT22;5931;48.832;9.072;2023-12-20T05:49:59;4.90;99.90
11748;DHT22;5931;48.832;9.072;2023-12-20T05:52:25;4.80;99.90
11748;DHT22;5931;48.832;9.072;2023-12-20T05:54:50;4.90;99.90
11748;DHT22;5931;48.832;9.072;2023-12-20T05:57:16;4.90;99.90
11748;DHT22;5931;48.832;9.072;2023-12-20T05:59:42;4.90;99.90
11748;DHT22;5931;48.832;9.072;2023-12-20T06:02:08;4.90;99.90
11748;DHT22;5931;48.832;9.072;2023-12-20T06:04:34;5.00;99.90
11748;DHT22;5931;48.832;9.072;2023-12-20T06:07:00;5.00;99.90
11748;DHT22;5931;48.832;9.072;2023-12-20T06:09:28;5.00;99.90
11748;DHT22;5931;48.832;9.072;2023-12-20T06:11:54;4.90;99.90
11748;DHT22;5931;48.832;9.072;2023-12-20T06:14:20;4.90;99.90
11748;DHT22;5931;48.832;9.072;2023-12-20T06:16:46;4.90;99.90
11748;DHT22;5931;48.832;9.072;2023-12-20T06:19:12;4.90;99.90
11748;DHT22;5931;48.832;9.072;2023-12-20T06:21:38;4.90;99.90
11748;DHT22;5931;48.832;9.072;2023-12-20T06:24:04;4.90;99.90
11748;DHT22;5931;48.832;9.072;2023-12-20T06:26:30;4.90;99.90
11748;DHT22;5931;48.832;9.072;2023-12-20T06:28:55;5.00;99.90
11748;DHT22;5931;48.832;9.072;2023-12-20T06:31:21;5.00;99.90
11748;DHT22;5931;48.832;9.072;2023-12-20T06:33:47;5.00;99.90
11748;DHT22;5931;48.832;9.072;2023-12-20T06:36:15;5.00;99.90
11748;DHT22;5931;48.832;9.072;2023-12-20T06:38:41;5.10;99.90
11748;DHT22;5931;48.832;9.072;2023-12-20T06:41:07;5.00;99.90
11748;DHT22;5931;48.832;9.072;2023-12-20T06:43:33;5.00;99.90
11748;DHT22;5931;48.832;9.072;2023-12-20T06:46:00;5.00;99.90
11748;DHT22;5931;48.832;9.072;2023-12-20T06:48:26;5.10;99.90
11748;DHT22;5931;48.832;9.072;2023-12-20T06:50:52;5.10;99.90
11748;DHT22;5931;48.832;9.072;2023-12-20T06:53:18;5.20;99.90
11748;DHT22;5931;48.832;9.072;2023-12-20T06:55:44;5.30;99.90
11748;DHT22;5931;48.832;9.072;2023-12-20T06:58:09;5.40;99.90
11748;DHT22;5931;48.832;9.072;2023-12-20T07:00:38;5.40;99.90
11748;DHT22;5931;48.832;9.072;2023-12-20T07:03:04;5.50;99.90
11748;DHT22;5931;48.832;9.072;2023-12-20T07:05:30;5.50;99.90
11748;DHT22;5931;48.832;9.072;2023-12-20T07:07:55;5.50;99.90
11748;DHT22;5931;48.832;9.072;2023-12-20T07:10:21;5.50;99.90
11748;DHT22;5931;48.832;9.072;2023-12-20T07:12:47;5.50;99.90
11748;DHT22;5931;48.832;9.072;2023-12-20T07:15:14;5.50;99.90
11748;DHT22;5931;48.832;9.072;2023-12-20T07:17:40;5.50;99.90
11748;DHT22;5931;48.832;9.072;2023-12-20T07:20:06;5.50;99.90
11748;DHT22;5931;48.832;9.072;2023-12-20T07:22:35;5.50;99.90
11748;DHT22;5931;48.832;9.072;2023-12-20T07:25:01;5.40;99.90
11748;DHT22;5931;48.832;9.072;2023-12-20T07:27:27;5.40;99.90
11748;DHT22;5931;48.832;9.072;2023-12-20T07:29:53;5.30;99.90
11748;DHT22;5931;48.832;9.072;2023-12-20T07:32:19;5.30;99.90
11748;DHT22;5931;48.832;9.072;2023-12-20T07:34:45;5.30;99.90
11748;DHT22;5931;48.832;9.072;2023-12-20T07:37:11;5.30;99.90
11748;DHT22;5931;48.832;9.072;2023-12-20T07:39:40;5.30;99.90
11748;DHT22;5931;48.832;9.072;2023-12-20T07:42:07;5.20;99.90
11748;DHT22;5931;48.832;9.072;2023-12-20T07:44:33;5.20;99.90
11748;DHT22;5931;48.832;9.072;2023-12-20T07:46:59;5.20;99.90
11748;DHT22;5931;48.832;9.072;2023-12-20T07:49:26;5.10;99.90
11748;DHT22;5931;48.832;9.072;2023-12-20T07:51:52;5.10;99.90
11748;DHT22;5931;48.832;9.072;2023-12-20T07:54:18;5.00;99.90
11748;DHT22;5931;48.832;9.072;2023-12-20T07:56:44;4.90;99.90
11748;DHT22;5931;48.832;9.072;2023-12-20T07:59:11;4.80;99.90
11748;DHT22;5931;48.832;9.072;2023-12-20T08:01:36;4.70;99.90
11748;DHT22;5931;48.832;9.072;2023-12-20T08:04:02;4.60;99.90
11748;DHT22;5931;48.832;9.072;2023-12-20T08:06:28;4.60;99.90
11748;DHT22;5931;48.832;9.072;2023-12-20T08:08:54;4.50;99.90
11748;DHT22;5931;48.832;9.072;2023-12-20T08:11:20;4.50;99.90
11748;DHT22;5931;48.832;9.072;2023-12-20T08:13:46;4.50;99.90
11748;DHT22;5931;48.832;9.072;2023-12-20T08:16:12;4.50;99.90
11748;DHT22;5931;48.832;9.072;2023-12-20T08:18:39;4.50;99.90
11748;DHT22;5931;48.832;9.072;2023-12-20T08:21:05;4.50;99.90
11748;DHT22;5931;48.832;9.072;2023-12-20T08:23:34;4.40;99.90
11748;DHT22;5931;48.832;9.072;2023-12-20T08:26:07;4.40;99.90
11748;DHT22;5931;48.832;9.072;2023-12-20T08:28:33;4.30;99.90
11748;DHT22;5931;48.832;9.072;2023-12-20T08:30:59;4.30;99.90
11748;DHT22;5931;48.832;9.072;2023-12-20T08:33:25;4.30;99.90
11748;DHT22;5931;48.832;9.072;2023-12-20T08:35:51;4.40;99.90
11748;DHT22;5931;48.832;9.072;2023-12-20T08:38:17;4.30;99.90
11748;DHT22;5931;48.832;9.072;2023-12-20T08:40:44;4.30;99.90
11748;DHT22;5931;48.832;9.072;2023-12-20T08:43:10;4.30;99.90
11748;DHT22;5931;48.832;9.072;2023-12-20T08:45:36;4.30;99.90
11748;DHT22;5931;48.832;9.072;2023-12-20T08:48:02;4.30;99.90
11748;DHT22;5931;48.832;9.072;2023-12-20T08:50:29;4.40;99.90
11748;DHT22;5931;48.832;9.072;2023-12-20T08:52:55;4.40;99.90
11748;DHT22;5931;48.832;9.072;2023-12-20T08:55:21;4.50;99.90
11748;DHT22;5931;48.832;9.072;2023-12-20T08:57:46;4.50;99.90
11748;DHT22;5931;48.832;9.072;2023-12-20T09:00:13;4.60;99.90
11748;DHT22;5931;48.832;9.072;2023-12-20T09:02:39;4.60;99.90
11748;DHT22;5931;48.832;9.072;2023-12-20T09:05:05;4.60;99.90
11748;DHT22;5931;48.832;9.072;2023-12-20T09:07:31;4.60;99.90
11748;DHT22;5931;48.832;9.072;2023-12-20T09:09:58;4.60;99.90
11748;DHT22;5931;48.832;9.072;2023-12-20T09:12:24;4.70;99.90
11748;DHT22;5931;48.832;9.072;2023-12-20T09:14:51;4.70;99.90
11748;DHT22;5931;48.832;9.072;2023-12-20T09:17:17;4.70;99.90
11748;DHT22;5931;48.832;9.072;2023-12-20T09:19:44;4.80;99.90
11748;DHT22;5931;48.832;9.072;2023-12-20T09:22:10;4.80;99.90
11748;DHT22;5931;48.832;9.072;2023-12-20T09:24:36;4.90;99.90
11748;DHT22;5931;48.832;9.072;2023-12-20T09:27:02;4.90;99.90
11748;DHT22;5931;48.832;9.072;2023-12-20T09:29:29;4.90;99.90
11748;DHT22;5931;48.832;9.072;2023-12-20T09:31:55;4.90;99.90
11748;DHT22;5931;48.832;9.072;2023-12-20T09:34:21;4.90;99.90
11748;DHT22;5931;48.832;9.072;2023-12-20T09:36:47;4.90;99.90
11748;DHT22;5931;48.832;9.072;2023-12-20T09:39:14;4.90;99.90
11748;DHT22;5931;48.832;9.072;2023-12-20T09:41:44;5.00;99.90
11748;DHT22;5931;48.832;9.072;2023-12-20T09:44:16;5.00;99.90
11748;DHT22;5931;48.832;9.072;2023-12-20T09:46:47;5.10;99.90
11748;DHT22;5931;48.832;9.072;2023-12-20T09:49:19;5.20;99.90
11748;DHT22;5931;48.832;9.072;2023-12-20T09:51:50;5.30;99.90
11748;DHT22;5931;48.832;9.072;2023-12-20T09:54:17;5.40;99.90
11748;DHT22;5931;48.832;9.072;2023-12-20T09:56:47;5.50;99.90
11748;DHT22;5931;48.832;9.072;2023-12-20T09:59:14;5.60;99.90
11748;DHT22;5931;48.832;9.072;2023-12-20T10:01:41;5.70;99.90
11748;DHT22;5931;48.832;9.072;2023-12-20T10:04:09;5.90;99.90
11748;DHT22;5931;48.832;9.072;2023-12-20T10:06:44;6.10;99.90
11748;DHT22;5931;48.832;9.072;2023-12-20T10:09:11;6.20;99.90
11748;DHT22;5931;48.832;9.072;2023-12-20T10:11:38;6.30;99.90
11748;DHT22;5931;48.832;9.072;2023-12-20T10:14:05;6.30;99.90
11748;DHT22;5931;48.832;9.072;2023-12-20T10:16:31;6.30;99.90
11748;DHT22;5931;48.832;9.072;2023-12-20T10:18:59;6.30;99.90
11748;DHT22;5931;48.832;9.072;2023-12-20T10:21:26;6.30;99.90
11748;DHT22;5931;48.832;9.072;2023-12-20T10:23:56;6.30;99.90
11748;DHT22;5931;48.832;9.072;2023-12-20T10:26:23;6.30;99.90
11748;DHT22;5931;48.832;9.072;2023-12-20T10:28:54;6.40;99.90
11748;DHT22;5931;48.832;9.072;2023-12-20T10:31:33;6.30;99.90
11748;DHT22;5931;48.832;9.072;2023-12-20T10:34:02;6.30;99.90
11748;DHT22;5931;48.832;9.072;2023-12-20T10:36:29;6.30;99.90
11748;DHT22;5931;48.832;9.072;2023-12-20T10:38:56;6.50;99.90
11748;DHT22;5931;48.832;9.072;2023-12-20T10:41:26;6.40;99.90
11748;DHT22;5931;48.832;9.072;2023-12-20T10:44:03;6.40;99.90
11748;DHT22;5931;48.832;9.072;2023-12-20T10:46:33;6.40;99.90
11748;DHT22;5931;48.832;9.072;2023-12-20T10:48:59;6.50;99.90
11748;DHT22;5931;48.832;9.072;2023-12-20T10:51:27;6.40;99.90
11748;DHT22;5931;48.832;9.072;2023-12-20T10:53:55;6.30;99.90
11748;DHT22;5931;48.832;9.072;2023-12-20T10:56:21;6.20;99.90
11748;DHT22;5931;48.832;9.072;2023-12-20T10:58:49;6.10;99.90
11748;DHT22;5931;48.832;9.072;2023-12-20T11:01:19;6.10;99.90
11748;DHT22;5931;48.832;9.072;2023-12-20T11:03:52;6.20;99.90
11748;DHT22;5931;48.832;9.072;2023-12-20T11:06:29;6.30;99.90
11748;DHT22;5931;48.832;9.072;2023-12-20T11:12:09;6.40;99.90
11748;DHT22;5931;48.832;9.072;2023-12-20T11:17:13;6.40;99.90
11748;DHT22;5931;48.832;9.072;2023-12-20T11:22:27;6.50;99.90
11748;DHT22;5931;48.832;9.072;2023-12-20T11:24:59;6.50;99.90
11748;DHT22;5931;48.832;9.072;2023-12-20T11:27:28;6.40;99.90
11748;DHT22;5931;48.832;9.072;2023-12-20T11:29:58;6.50;99.90
11748;DHT22;5931;48.832;9.072;2023-12-20T11:34:56;6.60;99.90
11748;DHT22;5931;48.832;9.072;2023-12-20T11:37:32;6.70;99.90
11748;DHT22;5931;48.832;9.072;2023-12-20T11:40:06;6.60;99.90
11748;DHT22;5931;48.832;9.072;2023-12-20T11:42:48;6.50;99.90
11748;DHT22;5931;48.832;9.072;2023-12-20T11:45:16;6.40;99.90
11748;DHT22;5931;48.832;9.072;2023-12-20T11:47:45;6.30;99.90
11748;DHT22;5931;48.832;9.072;2023-12-20T11:50:11;6.30;99.90
11748;DHT22;5931;48.832;9.072;2023-12-20T11:52:37;6.20;99.90
11748;DHT22;5931;48.832;9.072;2023-12-20T11:55:04;6.30;99.90
11748;DHT22;5931;48.832;9.072;2023-12-20T11:57:31;6.30;99.90
11748;DHT22;5931;48.832;9.072;2023-12-20T11:59:57;6.40;99.90
11748;DHT22;5931;48.832;9.072;2023-12-20T12:02:23;6.60;99.90
11748;DHT22;5931;48.832;9.072;2023-12-20T12:04:49;6.60;99.90
11748;DHT22;5931;48.832;9.072;2023-12-20T12:07:18;6.70;99.90
11748;DHT22;5931;48.832;9.072;2023-12-20T12:09:46;6.80;99.90
11748;DHT22;5931;48.832;9.072;2023-12-20T12:12:12;6.90;99.90
11748;DHT22;5931;48.832;9.072;2023-12-20T12:14:38;7.00;99.90
11748;DHT22;5931;48.832;9.072;2023-12-20T12:17:13;7.00;99.90
11748;DHT22;5931;48.832;9.072;2023-12-20T12:19:40;7.10;99.90
11748;DHT22;5931;48.832;9.072;2023-12-20T12:22:07;7.20;99.90
11748;DHT22;5931;48.832;9.072;2023-12-20T12:24:36;7.20;99.90
11748;DHT22;5931;48.832;9.072;2023-12-20T12:27:03;7.30;99.90
11748;DHT22;5931;48.832;9.072;2023-12-20T12:29:31;7.20;99.90
11748;DHT22;5931;48.832;9.072;2023-12-20T12:31:57;7.00;99.90
11748;DHT22;5931;48.832;9.072;2023-12-20T12:34:23;6.80;99.90
11748;DHT22;5931;48.832;9.072;2023-12-20T12:36:49;6.80;99.90
11748;DHT22;5931;48.832;9.072;2023-12-20T12:39:17;6.80;99.90
11748;DHT22;5931;48.832;9.072;2023-12-20T12:41:43;6.90;99.90
11748;DHT22;5931;48.832;9.072;2023-12-20T12:44:09;6.80;99.90
11748;DHT22;5931;48.832;9.072;2023-12-20T12:46:35;6.80;99.90
11748;DHT22;5931;48.832;9.072;2023-12-20T12:49:01;6.70;99.90
11748;DHT22;5931;48.832;9.072;2023-12-20T12:51:27;6.70;99.90
11748;DHT22;5931;48.832;9.072;2023-12-20T12:53:53;6.80;99.90
11748;DHT22;5931;48.832;9.072;2023-12-20T12:56:19;6.80;99.90
11748;DHT22;5931;48.832;9.072;2023-12-20T12:58:45;6.80;99.90
11748;DHT22;5931;48.832;9.072;2023-12-20T13:01:11;6.80;99.90
11748;DHT22;5931;48.832;9.072;2023-12-20T13:03:37;6.60;99.90
11748;DHT22;5931;48.832;9.072;2023-12-20T13:06:03;6.30;99.90
11748;DHT22;5931;48.832;9.072;2023-12-20T13:08:32;6.20;99.90
11748;DHT22;5931;48.832;9.072;2023-12-20T13:10:58;6.30;99.90
11748;DHT22;5931;48.832;9.072;2023-12-20T13:13:27;6.30;99.90
11748;DHT22;5931;48.832;9.072;2023-12-20T13:15:53;6.40;99.90
11748;DHT22;5931;48.832;9.072;2023-12-20T13:18:21;6.40;99.90
11748;DHT22;5931;48.832;9.072;2023-12-20T13:20:47;6.30;99.90
11748;DHT22;5931;48.832;9.072;2023-12-20T13:23:13;6.30;99.90
11748;DHT22;5931;48.832;9.072;2023-12-20T13:25:40;6.30;99.90
11748;DHT22;5931;48.832;9.072;2023-12-20T13:28:06;6.30;99.90
11748;DHT22;5931;48.832;9.072;2023-12-20T13:30:32;6.40;99.90
11748;DHT22;5931;48.832;9.072;2023-12-20T13:32:58;6.70;99.90
11748;DHT22;5931;48.832;9.072;2023-12-20T13:35:25;6.70;99.90
11748;DHT22;5931;48.832;9.072;2023-12-20T13:37:51;6.70;99.90
11748;DHT22;5931;48.832;9.072;2023-12-20T13:40:17;6.90;99.90
11748;DHT22;5931;48.832;9.072;2023-12-20T13:42:43;6.90;99.90
11748;DHT22;5931;48.832;9.072;2023-12-20T13:45:09;6.70;99.90
11748;DHT22;5931;48.832;9.072;2023-12-20T13:47:35;6.60;99.90
11748;DHT22;5931;48.832;9.072;2023-12-20T13:50:03;6.50;99.90
11748;DHT22;5931;48.832;9.072;2023-12-20T13:52:29;6.30;99.90
11748;DHT22;5931;48.832;9.072;2023-12-20T13:54:55;6.20;99.90
11748;DHT22;5931;48.832;9.072;2023-12-20T13:57:21;6.10;99.90
11748;DHT22;5931;48.832;9.072;2023-12-20T13:59:48;6.10;99.90
11748;DHT22;5931;48.832;9.072;2023-12-20T14:02:13;6.10;99.90
11748;DHT22;5931;48.832;9.072;2023-12-20T14:04:39;6.00;99.90
11748;DHT22;5931;48.832;9.072;2023-12-20T14:07:06;6.00;99.90
11748;DHT22;5931;48.832;9.072;2023-12-20T14:09:33;6.00;99.90
11748;DHT22;5931;48.832;9.072;2023-12-20T14:12:00;6.00;99.90
11748;DHT22;5931;48.832;9.072;2023-12-20T14:14:26;6.00;99.90
11748;DHT22;5931;48.832;9.072;2023-12-20T14:16:51;6.00;99.90
11748;DHT22;5931;48.832;9.072;2023-12-20T14:19:17;5.90;99.90
11748;DHT22;5931;48.832;9.072;2023-12-20T14:21:43;5.90;99.90
11748;DHT22;5931;48.832;9.072;2023-12-20T14:24:14;5.80;99.90
11748;DHT22;5931;48.832;9.072;2023-12-20T14:26:41;5.80;99.90
11748;DHT22;5931;48.832;9.072;2023-12-20T14:29:07;5.70;99.90
11748;DHT22;5931;48.832;9.072;2023-12-20T14:31:33;5.60;99.90
11748;DHT22;5931;48.832;9.072;2023-12-20T14:34:00;5.60;99.90
11748;DHT22;5931;48.832;9.072;2023-12-20T14:36:29;5.50;99.90
11748;DHT22;5931;48.832;9.072;2023-12-20T14:38:57;5.40;99.90
11748;DHT22;5931;48.832;9.072;2023-12-20T14:41:22;5.40;99.90
11748;DHT22;5931;48.832;9.072;2023-12-20T14:43:51;5.40;99.90
11748;DHT22;5931;48.832;9.072;2023-12-20T14:46:19;5.40;99.90
11748;DHT22;5931;48.832;9.072;2023-12-20T14:48:45;5.30;99.90
11748;DHT22;5931;48.832;9.072;2023-12-20T14:51:12;5.30;99.90
11748;DHT22;5931;48.832;9.072;2023-12-20T14:53:38;5.30;99.90
11748;DHT22;5931;48.832;9.072;2023-12-20T14:56:05;5.20;99.90
11748;DHT22;5931;48.832;9.072;2023-12-20T14:58:31;5.20;99.90
11748;DHT22;5931;48.832;9.072;2023-12-20T15:00:58;5.10;99.90
11748;DHT22;5931;48.832;9.072;2023-12-20T15:03:24;5.10;99.90
11748;DHT22;5931;48.832;9.072;2023-12-20T15:05:50;5.10;99.90
11748;DHT22;5931;48.832;9.072;2023-12-20T15:08:16;5.10;99.90
11748;DHT22;5931;48.832;9.072;2023-12-20T15:10:41;5.10;99.90
11748;DHT22;5931;48.832;9.072;2023-12-20T15:13:07;5.10;99.90
11748;DHT22;5931;48.832;9.072;2023-12-20T15:15:33;5.10;99.90
11748;DHT22;5931;48.832;9.072;2023-12-20T15:18:00;5.10;99.90
11748;DHT22;5931;48.832;9.072;2023-12-20T15:20:26;5.10;99.90
11748;DHT22;5931;48.832;9.072;2023-12-20T15:22:52;5.10;99.90
11748;DHT22;5931;48.832;9.072;2023-12-20T15:25:18;5.10;99.90
11748;DHT22;5931;48.832;9.072;2023-12-20T15:27:48;5.20;99.90
11748;DHT22;5931;48.832;9.072;2023-12-20T15:30:19;5.20;99.90
11748;DHT22;5931;48.832;9.072;2023-12-20T15:32:45;5.20;99.90
11748;DHT22;5931;48.832;9.072;2023-12-20T15:35:11;5.30;99.90
11748;DHT22;5931;48.832;9.072;2023-12-20T15:37:40;5.30;99.90
11748;DHT22;5931;48.832;9.072;2023-12-20T15:40:09;5.30;99.90
11748;DHT22;5931;48.832;9.072;2023-12-20T15:42:37;5.30;99.90
11748;DHT22;5931;48.832;9.072;2023-12-20T15:45:04;5.30;99.90
11748;DHT22;5931;48.832;9.072;2023-12-20T15:47:30;5.30;99.90
11748;DHT22;5931;48.832;9.072;2023-12-20T15:49:56;5.20;99.90
11748;DHT22;5931;48.832;9.072;2023-12-20T15:52:21;5.30;99.90
11748;DHT22;5931;48.832;9.072;2023-12-20T15:54:47;5.30;99.90
11748;DHT22;5931;48.832;9.072;2023-12-20T15:57:14;5.30;99.90
11748;DHT22;5931;48.832;9.072;2023-12-20T15:59:42;5.30;99.90
11748;DHT22;5931;48.832;9.072;2023-12-20T16:02:08;5.20;99.90
11748;DHT22;5931;48.832;9.072;2023-12-20T16:04:34;5.20;99.90
11748;DHT22;5931;48.832;9.072;2023-12-20T16:07:00;5.20;99.90
11748;DHT22;5931;48.832;9.072;2023-12-20T16:09:26;5.10;99.90